Etihad Airways Virtual Airport Information Service

Dublin Airport

ICAO: EIDW Country: Ireland
Latitude: 53.4214 Longitude: -6.27
Latest Arrival : ETD45 (OMAA-EIDW) Latest Departure : ETDJUMP (EIDW-KCHS)


WX CaptureLIVE
Data provided by noaa.gov | Recorded at 18:35:25

METAR : EIDW 081800Z 09005KT 070V130 9999 FEW035 SCT200 13/08 Q1024 NOSIG

TAF : EIDW 081700Z 0818/0918 12006KT 9999 FEW035 BECMG 0818/0821 VRB03KT PROB30 TEMPO 0902/0907 3000 BR BECMG 0908/0910 08008KT BECMG 0916/0918 VRB03KT


Runway Data for EIDW
Data provided by openaviationdata.com

Runway ID Mag Var Hdg Length Elevation Surface ILS Freq ILS Id ILS Slope

Dublin Airport, Ireland
Use only for reference purposes